Bellvale, New York
Current Conditions -  °F | °C
As of 7:53 PM on Monday 20 Oct 2014 (Local Time) from KFWN Reporting Station
Few Clouds Few Clouds  
Wind Chill: 51°   Ceiling: Unl
Heat Index: 51°   Visibility: 10mi
Dew Point: 40°   Wind: 0mph
Humidity: 66%   Direction: NA
Pressure: 29.96"   Gusts: NA
Location:  41.25°N, 74.31°W
Report Text: KFWN 202353Z AUTO 00000KT 10SM FEW120 11/04 A2996 RMK AO2 SLP148 T01060044 10156 20100 53001
Loading
Personal Weather Stations






























Interactive Weather Map
Tropical Storm Tracking
New forecast layout! Learn more

10-Day Weather Forecast

Advertisements
Track Severe Weather on mobile